sensor_id;sensor_type;location;lat;lon;timestamp;P1;durP1;ratioP1;P2;durP2;ratioP2
79066;SDS011;68470;50.224;14.348;2024-03-08T00:00:23;33.05;;;15.00;;
79066;SDS011;68470;50.224;14.348;2024-03-08T00:03:08;37.88;;;15.50;;
79066;SDS011;68470;50.224;14.348;2024-03-08T00:05:36;50.70;;;22.48;;
79066;SDS011;68470;50.224;14.348;2024-03-08T00:08:04;57.30;;;25.95;;
79066;SDS011;68470;50.224;14.348;2024-03-08T00:10:30;55.28;;;23.15;;
79066;SDS011;68470;50.224;14.348;2024-03-08T00:12:55;44.30;;;20.58;;
79066;SDS011;68470;50.224;14.348;2024-03-08T00:15:21;39.58;;;19.35;;
79066;SDS011;68470;50.224;14.348;2024-03-08T00:17:48;47.55;;;18.15;;
79066;SDS011;68470;50.224;14.348;2024-03-08T00:20:13;59.40;;;25.10;;
79066;SDS011;68470;50.224;14.348;2024-03-08T00:22:39;51.15;;;21.73;;
79066;SDS011;68470;50.224;14.348;2024-03-08T00:25:05;44.10;;;19.75;;
79066;SDS011;68470;50.224;14.348;2024-03-08T00:29:59;44.13;;;18.23;;
79066;SDS011;68470;50.224;14.348;2024-03-08T00:32:25;42.72;;;19.50;;
79066;SDS011;68470;50.224;14.348;2024-03-08T00:34:51;53.15;;;21.42;;
79066;SDS011;68470;50.224;14.348;2024-03-08T00:37:22;43.28;;;19.30;;
79066;SDS011;68470;50.224;14.348;2024-03-08T00:39:48;47.08;;;18.08;;
79066;SDS011;68470;50.224;14.348;2024-03-08T00:42:15;45.17;;;19.52;;
79066;SDS011;68470;50.224;14.348;2024-03-08T00:44:40;50.78;;;21.13;;
79066;SDS011;68470;50.224;14.348;2024-03-08T00:47:06;42.78;;;20.08;;
79066;SDS011;68470;50.224;14.348;2024-03-08T00:49:32;48.75;;;22.45;;
79066;SDS011;68470;50.224;14.348;2024-03-08T00:51:57;47.00;;;21.42;;
79066;SDS011;68470;50.224;14.348;2024-03-08T00:54:23;45.55;;;20.00;;
79066;SDS011;68470;50.224;14.348;2024-03-08T00:56:49;62.33;;;26.48;;
79066;SDS011;68470;50.224;14.348;2024-03-08T00:59:14;71.47;;;29.10;;
79066;SDS011;68470;50.224;14.348;2024-03-08T01:01:43;54.25;;;25.17;;
79066;SDS011;68470;50.224;14.348;2024-03-08T01:04:09;64.07;;;27.98;;
79066;SDS011;68470;50.224;14.348;2024-03-08T01:06:35;60.17;;;24.63;;
79066;SDS011;68470;50.224;14.348;2024-03-08T01:09:01;59.05;;;26.95;;
79066;SDS011;68470;50.224;14.348;2024-03-08T01:11:26;59.00;;;24.23;;
79066;SDS011;68470;50.224;14.348;2024-03-08T01:13:53;51.53;;;21.40;;
79066;SDS011;68470;50.224;14.348;2024-03-08T01:16:18;57.63;;;23.88;;
79066;SDS011;68470;50.224;14.348;2024-03-08T01:18:45;57.17;;;23.42;;
79066;SDS011;68470;50.224;14.348;2024-03-08T01:21:11;62.15;;;25.42;;
79066;SDS011;68470;50.224;14.348;2024-03-08T01:23:37;63.00;;;27.33;;
79066;SDS011;68470;50.224;14.348;2024-03-08T01:26:02;75.93;;;33.78;;
79066;SDS011;68470;50.224;14.348;2024-03-08T01:28:29;62.50;;;26.67;;
79066;SDS011;68470;50.224;14.348;2024-03-08T01:30:55;47.53;;;22.48;;
79066;SDS011;68470;50.224;14.348;2024-03-08T01:33:24;46.67;;;20.95;;
79066;SDS011;68470;50.224;14.348;2024-03-08T01:35:53;45.65;;;19.30;;
79066;SDS011;68470;50.224;14.348;2024-03-08T01:38:19;46.97;;;19.20;;
79066;SDS011;68470;50.224;14.348;2024-03-08T01:40:46;47.70;;;20.23;;
79066;SDS011;68470;50.224;14.348;2024-03-08T01:43:22;50.92;;;20.42;;
79066;SDS011;68470;50.224;14.348;2024-03-08T01:45:48;47.08;;;20.08;;
79066;SDS011;68470;50.224;14.348;2024-03-08T01:48:16;46.50;;;20.85;;
79066;SDS011;68470;50.224;14.348;2024-03-08T01:50:43;47.63;;;21.02;;
79066;SDS011;68470;50.224;14.348;2024-03-08T01:53:08;44.05;;;19.15;;
79066;SDS011;68470;50.224;14.348;2024-03-08T01:55:37;34.90;;;16.38;;
79066;SDS011;68470;50.224;14.348;2024-03-08T01:58:04;43.78;;;17.65;;
79066;SDS011;68470;50.224;14.348;2024-03-08T02:00:29;43.55;;;19.73;;
79066;SDS011;68470;50.224;14.348;2024-03-08T02:02:55;41.78;;;18.95;;
79066;SDS011;68470;50.224;14.348;2024-03-08T02:05:22;45.92;;;19.10;;
79066;SDS011;68470;50.224;14.348;2024-03-08T02:07:49;41.40;;;18.48;;
79066;SDS011;68470;50.224;14.348;2024-03-08T02:10:14;41.22;;;19.70;;
79066;SDS011;68470;50.224;14.348;2024-03-08T02:12:40;36.85;;;17.17;;
79066;SDS011;68470;50.224;14.348;2024-03-08T02:15:06;46.72;;;19.02;;
79066;SDS011;68470;50.224;14.348;2024-03-08T02:17:32;43.58;;;19.60;;
79066;SDS011;68470;50.224;14.348;2024-03-08T02:20:01;36.67;;;17.42;;
79066;SDS011;68470;50.224;14.348;2024-03-08T02:22:28;45.20;;;18.20;;
79066;SDS011;68470;50.224;14.348;2024-03-08T02:24:54;40.58;;;17.30;;
79066;SDS011;68470;50.224;14.348;2024-03-08T02:27:26;39.05;;;16.88;;
79066;SDS011;68470;50.224;14.348;2024-03-08T02:29:55;42.30;;;16.98;;
79066;SDS011;68470;50.224;14.348;2024-03-08T02:32:22;40.58;;;16.50;;
79066;SDS011;68470;50.224;14.348;2024-03-08T02:34:48;43.10;;;17.05;;
79066;SDS011;68470;50.224;14.348;2024-03-08T02:37:15;45.13;;;19.00;;
79066;SDS011;68470;50.224;14.348;2024-03-08T02:39:40;45.70;;;19.30;;
79066;SDS011;68470;50.224;14.348;2024-03-08T02:42:06;40.00;;;18.05;;
79066;SDS011;68470;50.224;14.348;2024-03-08T02:44:32;45.63;;;18.67;;
79066;SDS011;68470;50.224;14.348;2024-03-08T02:46:59;46.70;;;19.30;;
79066;SDS011;68470;50.224;14.348;2024-03-08T02:49:25;47.83;;;20.98;;
79066;SDS011;68470;50.224;14.348;2024-03-08T02:51:54;50.13;;;22.00;;
79066;SDS011;68470;50.224;14.348;2024-03-08T02:54:22;45.55;;;19.52;;
79066;SDS011;68470;50.224;14.348;2024-03-08T02:56:48;35.22;;;16.05;;
79066;SDS011;68470;50.224;14.348;2024-03-08T02:59:15;43.80;;;17.35;;
79066;SDS011;68470;50.224;14.348;2024-03-08T03:01:43;34.70;;;15.73;;
79066;SDS011;68470;50.224;14.348;2024-03-08T03:04:08;39.63;;;17.42;;
79066;SDS011;68470;50.224;14.348;2024-03-08T03:06:34;44.08;;;17.48;;
79066;SDS011;68470;50.224;14.348;2024-03-08T03:09:00;37.90;;;17.42;;
79066;SDS011;68470;50.224;14.348;2024-03-08T03:11:26;39.38;;;18.35;;
79066;SDS011;68470;50.224;14.348;2024-03-08T03:13:52;34.90;;;15.88;;
79066;SDS011;68470;50.224;14.348;2024-03-08T03:16:18;42.53;;;16.20;;
79066;SDS011;68470;50.224;14.348;2024-03-08T03:18:45;35.88;;;15.70;;
79066;SDS011;68470;50.224;14.348;2024-03-08T03:21:11;32.60;;;15.13;;
79066;SDS011;68470;50.224;14.348;2024-03-08T03:23:37;38.88;;;16.55;;
79066;SDS011;68470;50.224;14.348;2024-03-08T03:26:05;37.83;;;17.95;;
79066;SDS011;68470;50.224;14.348;2024-03-08T03:28:32;35.83;;;16.42;;
79066;SDS011;68470;50.224;14.348;2024-03-08T03:30:58;50.15;;;20.38;;
79066;SDS011;68470;50.224;14.348;2024-03-08T03:33:24;45.22;;;18.33;;
79066;SDS011;68470;50.224;14.348;2024-03-08T03:35:50;52.17;;;20.88;;
79066;SDS011;68470;50.224;14.348;2024-03-08T03:38:17;44.55;;;19.20;;
79066;SDS011;68470;50.224;14.348;2024-03-08T03:40:42;40.08;;;16.40;;
79066;SDS011;68470;50.224;14.348;2024-03-08T03:43:10;39.97;;;16.08;;
79066;SDS011;68470;50.224;14.348;2024-03-08T03:45:36;37.47;;;17.85;;
79066;SDS011;68470;50.224;14.348;2024-03-08T03:48:05;39.75;;;16.08;;
79066;SDS011;68470;50.224;14.348;2024-03-08T03:50:32;37.75;;;16.45;;
79066;SDS011;68470;50.224;14.348;2024-03-08T03:52:59;51.28;;;20.83;;
79066;SDS011;68470;50.224;14.348;2024-03-08T03:55:25;57.05;;;24.77;;
79066;SDS011;68470;50.224;14.348;2024-03-08T03:57:50;43.65;;;22.08;;
79066;SDS011;68470;50.224;14.348;2024-03-08T04:00:16;46.30;;;21.05;;
79066;SDS011;68470;50.224;14.348;2024-03-08T04:02:41;44.00;;;19.30;;
79066;SDS011;68470;50.224;14.348;2024-03-08T04:05:08;35.75;;;17.48;;
79066;SDS011;68470;50.224;14.348;2024-03-08T04:07:34;33.08;;;15.82;;
79066;SDS011;68470;50.224;14.348;2024-03-08T04:10:03;40.22;;;19.20;;
79066;SDS011;68470;50.224;14.348;2024-03-08T04:12:29;47.88;;;21.77;;
79066;SDS011;68470;50.224;14.348;2024-03-08T04:14:55;43.22;;;20.70;;
79066;SDS011;68470;50.224;14.348;2024-03-08T04:17:21;51.92;;;23.90;;
79066;SDS011;68470;50.224;14.348;2024-03-08T04:19:47;52.35;;;25.50;;
79066;SDS011;68470;50.224;14.348;2024-03-08T04:22:13;48.25;;;22.75;;
79066;SDS011;68470;50.224;14.348;2024-03-08T04:24:39;40.03;;;16.20;;
79066;SDS011;68470;50.224;14.348;2024-03-08T04:27:05;41.88;;;18.10;;
79066;SDS011;68470;50.224;14.348;2024-03-08T04:29:31;38.72;;;18.08;;
79066;SDS011;68470;50.224;14.348;2024-03-08T04:31:58;38.45;;;16.80;;
79066;SDS011;68470;50.224;14.348;2024-03-08T04:34:23;39.90;;;16.00;;
79066;SDS011;68470;50.224;14.348;2024-03-08T04:36:49;36.08;;;16.27;;
79066;SDS011;68470;50.224;14.348;2024-03-08T04:39:15;36.58;;;15.85;;
79066;SDS011;68470;50.224;14.348;2024-03-08T04:41:41;32.95;;;15.02;;
79066;SDS011;68470;50.224;14.348;2024-03-08T04:44:12;36.75;;;15.55;;
79066;SDS011;68470;50.224;14.348;2024-03-08T04:49:03;29.42;;;11.68;;
79066;SDS011;68470;50.224;14.348;2024-03-08T04:51:29;38.03;;;15.65;;
79066;SDS011;68470;50.224;14.348;2024-03-08T04:53:55;35.83;;;15.80;;
79066;SDS011;68470;50.224;14.348;2024-03-08T04:56:22;21.23;;;12.02;;
79066;SDS011;68470;50.224;14.348;2024-03-08T04:58:48;42.25;;;16.25;;
79066;SDS011;68470;50.224;14.348;2024-03-08T05:01:13;38.75;;;17.42;;
79066;SDS011;68470;50.224;14.348;2024-03-08T05:03:39;38.13;;;15.63;;
79066;SDS011;68470;50.224;14.348;2024-03-08T05:06:04;36.38;;;16.08;;
79066;SDS011;68470;50.224;14.348;2024-03-08T05:08:30;43.88;;;18.67;;
79066;SDS011;68470;50.224;14.348;2024-03-08T05:10:55;40.10;;;18.88;;
79066;SDS011;68470;50.224;14.348;2024-03-08T05:13:21;49.38;;;20.05;;
79066;SDS011;68470;50.224;14.348;2024-03-08T05:15:51;47.55;;;19.88;;
79066;SDS011;68470;50.224;14.348;2024-03-08T05:18:16;43.85;;;20.02;;
79066;SDS011;68470;50.224;14.348;2024-03-08T05:20:42;45.08;;;17.67;;
79066;SDS011;68470;50.224;14.348;2024-03-08T05:23:07;41.08;;;17.45;;
79066;SDS011;68470;50.224;14.348;2024-03-08T05:25:33;36.97;;;18.42;;
79066;SDS011;68470;50.224;14.348;2024-03-08T05:27:59;36.22;;;14.23;;
79066;SDS011;68470;50.224;14.348;2024-03-08T05:30:24;43.42;;;19.25;;
79066;SDS011;68470;50.224;14.348;2024-03-08T05:32:50;46.45;;;21.00;;
79066;SDS011;68470;50.224;14.348;2024-03-08T05:35:15;46.30;;;21.42;;
79066;SDS011;68470;50.224;14.348;2024-03-08T05:37:41;45.92;;;19.75;;
79066;SDS011;68470;50.224;14.348;2024-03-08T05:40:10;42.35;;;19.38;;
79066;SDS011;68470;50.224;14.348;2024-03-08T05:42:35;46.22;;;20.95;;
79066;SDS011;68470;50.224;14.348;2024-03-08T05:45:04;43.67;;;19.05;;
79066;SDS011;68470;50.224;14.348;2024-03-08T05:47:31;40.92;;;19.65;;
79066;SDS011;68470;50.224;14.348;2024-03-08T05:49:58;34.35;;;16.80;;
79066;SDS011;68470;50.224;14.348;2024-03-08T05:52:23;27.08;;;12.10;;
79066;SDS011;68470;50.224;14.348;2024-03-08T05:54:49;35.35;;;15.70;;
79066;SDS011;68470;50.224;14.348;2024-03-08T05:57:14;37.55;;;15.15;;
79066;SDS011;68470;50.224;14.348;2024-03-08T05:59:40;19.10;;;10.65;;
79066;SDS011;68470;50.224;14.348;2024-03-08T06:02:05;38.15;;;15.52;;
79066;SDS011;68470;50.224;14.348;2024-03-08T06:04:31;22.70;;;12.18;;
79066;SDS011;68470;50.224;14.348;2024-03-08T06:06:57;16.13;;;9.27;;
79066;SDS011;68470;50.224;14.348;2024-03-08T06:09:23;29.08;;;13.73;;
79066;SDS011;68470;50.224;14.348;2024-03-08T06:11:50;26.95;;;13.50;;
79066;SDS011;68470;50.224;14.348;2024-03-08T06:14:15;29.88;;;14.57;;
79066;SDS011;68470;50.224;14.348;2024-03-08T06:16:44;27.58;;;12.25;;
79066;SDS011;68470;50.224;14.348;2024-03-08T06:19:09;23.92;;;11.50;;
79066;SDS011;68470;50.224;14.348;2024-03-08T06:21:35;40.65;;;17.65;;
79066;SDS011;68470;50.224;14.348;2024-03-08T06:24:01;25.80;;;11.35;;
79066;SDS011;68470;50.224;14.348;2024-03-08T06:26:27;20.55;;;12.32;;
79066;SDS011;68470;50.224;14.348;2024-03-08T06:28:55;26.27;;;14.48;;
79066;SDS011;68470;50.224;14.348;2024-03-08T06:31:21;32.55;;;12.85;;
79066;SDS011;68470;50.224;14.348;2024-03-08T06:33:46;26.23;;;14.45;;
79066;SDS011;68470;50.224;14.348;2024-03-08T06:36:15;52.28;;;25.52;;
79066;SDS011;68470;50.224;14.348;2024-03-08T06:38:44;28.80;;;16.67;;
79066;SDS011;68470;50.224;14.348;2024-03-08T06:41:11;31.65;;;17.83;;
79066;SDS011;68470;50.224;14.348;2024-03-08T06:43:43;22.58;;;12.23;;
79066;SDS011;68470;50.224;14.348;2024-03-08T06:46:09;25.88;;;11.55;;
79066;SDS011;68470;50.224;14.348;2024-03-08T06:48:35;16.58;;;11.52;;
79066;SDS011;68470;50.224;14.348;2024-03-08T06:51:02;42.05;;;18.25;;
79066;SDS011;68470;50.224;14.348;2024-03-08T06:53:28;29.42;;;15.18;;
79066;SDS011;68470;50.224;14.348;2024-03-08T06:55:54;32.38;;;16.98;;
79066;SDS011;68470;50.224;14.348;2024-03-08T06:58:19;36.42;;;17.17;;
79066;SDS011;68470;50.224;14.348;2024-03-08T07:00:45;29.40;;;10.95;;
79066;SDS011;68470;50.224;14.348;2024-03-08T07:03:11;20.20;;;10.55;;
79066;SDS011;68470;50.224;14.348;2024-03-08T07:05:42;29.17;;;16.55;;
79066;SDS011;68470;50.224;14.348;2024-03-08T07:08:07;27.13;;;14.05;;
79066;SDS011;68470;50.224;14.348;2024-03-08T07:10:33;29.60;;;13.13;;
79066;SDS011;68470;50.224;14.348;2024-03-08T07:13:00;25.35;;;12.90;;
79066;SDS011;68470;50.224;14.348;2024-03-08T07:15:27;25.17;;;12.57;;
79066;SDS011;68470;50.224;14.348;2024-03-08T07:17:53;22.65;;;11.45;;
79066;SDS011;68470;50.224;14.348;2024-03-08T07:20:19;35.67;;;17.83;;
79066;SDS011;68470;50.224;14.348;2024-03-08T07:22:45;20.52;;;12.48;;
79066;SDS011;68470;50.224;14.348;2024-03-08T07:25:13;37.95;;;17.83;;
79066;SDS011;68470;50.224;14.348;2024-03-08T07:27:52;24.67;;;15.95;;
79066;SDS011;68470;50.224;14.348;2024-03-08T07:30:18;22.58;;;11.40;;
79066;SDS011;68470;50.224;14.348;2024-03-08T07:33:03;26.73;;;13.23;;
79066;SDS011;68470;50.224;14.348;2024-03-08T07:35:28;24.55;;;12.75;;
79066;SDS011;68470;50.224;14.348;2024-03-08T07:37:54;29.63;;;15.25;;
79066;SDS011;68470;50.224;14.348;2024-03-08T07:40:25;33.75;;;14.63;;
79066;SDS011;68470;50.224;14.348;2024-03-08T07:42:51;21.20;;;12.25;;
79066;SDS011;68470;50.224;14.348;2024-03-08T07:45:16;34.80;;;17.75;;
79066;SDS011;68470;50.224;14.348;2024-03-08T07:47:42;25.02;;;14.90;;
79066;SDS011;68470;50.224;14.348;2024-03-08T07:50:08;24.80;;;11.45;;
79066;SDS011;68470;50.224;14.348;2024-03-08T07:52:34;29.58;;;15.32;;
79066;SDS011;68470;50.224;14.348;2024-03-08T07:55:00;28.90;;;12.82;;
79066;SDS011;68470;50.224;14.348;2024-03-08T07:57:25;34.75;;;18.38;;
79066;SDS011;68470;50.224;14.348;2024-03-08T07:59:52;34.38;;;18.02;;
79066;SDS011;68470;50.224;14.348;2024-03-08T08:02:17;32.88;;;16.42;;
79066;SDS011;68470;50.224;14.348;2024-03-08T08:04:43;48.05;;;22.23;;
79066;SDS011;68470;50.224;14.348;2024-03-08T08:07:10;23.83;;;13.23;;
79066;SDS011;68470;50.224;14.348;2024-03-08T08:09:35;28.27;;;14.15;;
79066;SDS011;68470;50.224;14.348;2024-03-08T08:12:01;24.83;;;15.80;;
79066;SDS011;68470;50.224;14.348;2024-03-08T08:14:29;18.92;;;10.40;;
79066;SDS011;68470;50.224;14.348;2024-03-08T08:16:56;27.70;;;14.80;;
79066;SDS011;68470;50.224;14.348;2024-03-08T08:19:23;26.65;;;11.43;;
79066;SDS011;68470;50.224;14.348;2024-03-08T08:21:51;21.38;;;13.00;;
79066;SDS011;68470;50.224;14.348;2024-03-08T08:24:17;49.22;;;24.42;;
79066;SDS011;68470;50.224;14.348;2024-03-08T08:26:42;34.47;;;17.10;;
79066;SDS011;68470;50.224;14.348;2024-03-08T08:29:09;25.25;;;11.98;;
79066;SDS011;68470;50.224;14.348;2024-03-08T08:31:35;36.55;;;18.75;;
79066;SDS011;68470;50.224;14.348;2024-03-08T08:34:02;33.95;;;17.63;;
79066;SDS011;68470;50.224;14.348;2024-03-08T08:36:28;71.80;;;33.65;;
79066;SDS011;68470;50.224;14.348;2024-03-08T08:38:55;40.08;;;21.42;;
79066;SDS011;68470;50.224;14.348;2024-03-08T08:41:21;45.42;;;21.88;;
79066;SDS011;68470;50.224;14.348;2024-03-08T08:43:47;42.65;;;21.35;;
79066;SDS011;68470;50.224;14.348;2024-03-08T08:46:17;27.42;;;14.77;;
79066;SDS011;68470;50.224;14.348;2024-03-08T08:48:43;29.30;;;17.20;;
79066;SDS011;68470;50.224;14.348;2024-03-08T08:51:13;31.27;;;15.82;;
79066;SDS011;68470;50.224;14.348;2024-03-08T08:56:08;33.58;;;18.67;;
79066;SDS011;68470;50.224;14.348;2024-03-08T08:58:33;32.25;;;17.38;;
79066;SDS011;68470;50.224;14.348;2024-03-08T09:00:59;20.90;;;12.63;;
79066;SDS011;68470;50.224;14.348;2024-03-08T09:03:25;34.58;;;14.68;;
79066;SDS011;68470;50.224;14.348;2024-03-08T09:05:52;36.15;;;16.17;;
79066;SDS011;68470;50.224;14.348;2024-03-08T09:08:18;27.13;;;12.85;;
79066;SDS011;68470;50.224;14.348;2024-03-08T09:10:43;20.77;;;10.98;;
79066;SDS011;68470;50.224;14.348;2024-03-08T09:13:09;29.95;;;15.75;;
79066;SDS011;68470;50.224;14.348;2024-03-08T09:15:36;26.90;;;12.52;;
79066;SDS011;68470;50.224;14.348;2024-03-08T09:18:06;28.15;;;15.23;;
79066;SDS011;68470;50.224;14.348;2024-03-08T09:20:31;20.75;;;11.15;;
79066;SDS011;68470;50.224;14.348;2024-03-08T09:22:57;20.02;;;10.82;;
79066;SDS011;68470;50.224;14.348;2024-03-08T09:25:23;27.88;;;13.38;;
79066;SDS011;68470;50.224;14.348;2024-03-08T09:27:49;30.80;;;14.55;;
79066;SDS011;68470;50.224;14.348;2024-03-08T09:30:15;30.23;;;13.85;;
79066;SDS011;68470;50.224;14.348;2024-03-08T09:32:41;24.80;;;13.10;;
79066;SDS011;68470;50.224;14.348;2024-03-08T09:35:08;28.05;;;13.90;;
79066;SDS011;68470;50.224;14.348;2024-03-08T09:37:34;25.98;;;11.88;;
79066;SDS011;68470;50.224;14.348;2024-03-08T09:40:00;26.98;;;14.48;;
79066;SDS011;68470;50.224;14.348;2024-03-08T09:42:26;28.58;;;14.55;;
79066;SDS011;68470;50.224;14.348;2024-03-08T09:44:51;31.35;;;13.98;;
79066;SDS011;68470;50.224;14.348;2024-03-08T09:47:17;25.55;;;12.57;;
79066;SDS011;68470;50.224;14.348;2024-03-08T09:49:43;58.35;;;21.15;;
79066;SDS011;68470;50.224;14.348;2024-03-08T09:52:09;26.70;;;17.92;;
79066;SDS011;68470;50.224;14.348;2024-03-08T09:54:35;27.40;;;12.07;;
79066;SDS011;68470;50.224;14.348;2024-03-08T09:57:01;16.23;;;10.35;;
79066;SDS011;68470;50.224;14.348;2024-03-08T09:59:29;22.95;;;13.90;;
79066;SDS011;68470;50.224;14.348;2024-03-08T10:01:58;29.13;;;13.27;;
79066;SDS011;68470;50.224;14.348;2024-03-08T10:04:24;19.42;;;9.60;;
79066;SDS011;68470;50.224;14.348;2024-03-08T10:06:51;23.58;;;13.75;;
79066;SDS011;68470;50.224;14.348;2024-03-08T10:09:17;35.28;;;18.92;;
79066;SDS011;68470;50.224;14.348;2024-03-08T10:11:43;21.65;;;11.00;;
79066;SDS011;68470;50.224;14.348;2024-03-08T10:14:08;16.92;;;8.45;;
79066;SDS011;68470;50.224;14.348;2024-03-08T10:16:34;26.20;;;12.38;;
79066;SDS011;68470;50.224;14.348;2024-03-08T10:19:00;23.13;;;12.80;;
79066;SDS011;68470;50.224;14.348;2024-03-08T10:21:26;27.17;;;16.25;;
79066;SDS011;68470;50.224;14.348;2024-03-08T10:23:52;26.88;;;13.95;;
79066;SDS011;68470;50.224;14.348;2024-03-08T10:26:18;23.00;;;16.05;;
79066;SDS011;68470;50.224;14.348;2024-03-08T10:28:46;25.55;;;11.90;;
79066;SDS011;68470;50.224;14.348;2024-03-08T10:31:15;28.67;;;14.07;;
79066;SDS011;68470;50.224;14.348;2024-03-08T10:33:40;22.17;;;10.85;;
79066;SDS011;68470;50.224;14.348;2024-03-08T10:36:07;29.95;;;13.70;;
79066;SDS011;68470;50.224;14.348;2024-03-08T10:38:33;27.23;;;13.30;;
79066;SDS011;68470;50.224;14.348;2024-03-08T10:41:01;28.17;;;15.55;;
79066;SDS011;68470;50.224;14.348;2024-03-08T10:43:27;27.75;;;13.13;;
79066;SDS011;68470;50.224;14.348;2024-03-08T10:46:03;26.73;;;15.65;;
79066;SDS011;68470;50.224;14.348;2024-03-08T10:48:32;23.27;;;11.07;;
79066;SDS011;68470;50.224;14.348;2024-03-08T10:51:02;25.55;;;13.38;;
79066;SDS011;68470;50.224;14.348;2024-03-08T10:53:28;24.20;;;11.98;;
79066;SDS011;68470;50.224;14.348;2024-03-08T10:55:56;22.63;;;12.73;;
79066;SDS011;68470;50.224;14.348;2024-03-08T10:58:22;27.95;;;12.43;;
79066;SDS011;68470;50.224;14.348;2024-03-08T11:00:48;25.75;;;13.60;;
79066;SDS011;68470;50.224;14.348;2024-03-08T11:05:59;23.10;;;14.05;;
79066;SDS011;68470;50.224;14.348;2024-03-08T11:08:26;30.02;;;16.92;;
79066;SDS011;68470;50.224;14.348;2024-03-08T11:10:54;24.02;;;11.95;;
79066;SDS011;68470;50.224;14.348;2024-03-08T11:13:37;24.45;;;11.10;;
79066;SDS011;68470;50.224;14.348;2024-03-08T11:16:09;24.00;;;11.07;;
79066;SDS011;68470;50.224;14.348;2024-03-08T11:18:35;21.02;;;10.73;;
79066;SDS011;68470;50.224;14.348;2024-03-08T11:21:04;29.15;;;13.73;;
79066;SDS011;68470;50.224;14.348;2024-03-08T11:23:37;38.90;;;17.85;;
79066;SDS011;68470;50.224;14.348;2024-03-08T11:26:03;22.27;;;11.18;;
79066;SDS011;68470;50.224;14.348;2024-03-08T11:28:32;22.65;;;12.13;;
79066;SDS011;68470;50.224;14.348;2024-03-08T11:33:34;24.25;;;11.32;;
79066;SDS011;68470;50.224;14.348;2024-03-08T11:36:12;23.42;;;11.20;;
79066;SDS011;68470;50.224;14.348;2024-03-08T11:38:45;27.23;;;18.38;;
79066;SDS011;68470;50.224;14.348;2024-03-08T11:41:14;23.65;;;11.57;;
79066;SDS011;68470;50.224;14.348;2024-03-08T11:43:40;26.23;;;12.77;;
79066;SDS011;68470;50.224;14.348;2024-03-08T11:46:07;18.83;;;11.65;;
79066;SDS011;68470;50.224;14.348;2024-03-08T11:48:33;22.65;;;10.52;;
79066;SDS011;68470;50.224;14.348;2024-03-08T11:51:01;23.23;;;9.13;;
79066;SDS011;68470;50.224;14.348;2024-03-08T11:53:27;17.48;;;8.65;;
79066;SDS011;68470;50.224;14.348;2024-03-08T11:55:52;17.38;;;8.77;;
79066;SDS011;68470;50.224;14.348;2024-03-08T11:58:18;21.33;;;10.60;;
79066;SDS011;68470;50.224;14.348;2024-03-08T12:00:44;26.55;;;11.60;;
79066;SDS011;68470;50.224;14.348;2024-03-08T12:03:11;22.85;;;14.43;;
79066;SDS011;68470;50.224;14.348;2024-03-08T12:05:37;15.35;;;10.18;;
79066;SDS011;68470;50.224;14.348;2024-03-08T12:08:03;15.27;;;8.50;;
79066;SDS011;68470;50.224;14.348;2024-03-08T12:10:32;18.70;;;10.45;;
79066;SDS011;68470;50.224;14.348;2024-03-08T12:12:58;20.88;;;11.02;;
79066;SDS011;68470;50.224;14.348;2024-03-08T12:15:28;21.30;;;11.60;;
79066;SDS011;68470;50.224;14.348;2024-03-08T12:17:54;17.83;;;9.70;;
79066;SDS011;68470;50.224;14.348;2024-03-08T12:20:22;15.45;;;8.30;;
79066;SDS011;68470;50.224;14.348;2024-03-08T12:22:48;15.30;;;8.00;;
79066;SDS011;68470;50.224;14.348;2024-03-08T12:25:14;16.83;;;9.77;;
79066;SDS011;68470;50.224;14.348;2024-03-08T12:27:40;21.58;;;11.75;;
79066;SDS011;68470;50.224;14.348;2024-03-08T12:30:18;15.95;;;8.50;;
79066;SDS011;68470;50.224;14.348;2024-03-08T12:32:47;16.08;;;7.78;;
79066;SDS011;68470;50.224;14.348;2024-03-08T12:35:13;15.50;;;8.02;;
79066;SDS011;68470;50.224;14.348;2024-03-08T12:37:39;13.88;;;9.20;;
79066;SDS011;68470;50.224;14.348;2024-03-08T12:40:07;15.07;;;8.30;;
79066;SDS011;68470;50.224;14.348;2024-03-08T12:42:33;9.27;;;7.25;;
79066;SDS011;68470;50.224;14.348;2024-03-08T12:45:00;16.60;;;7.88;;
79066;SDS011;68470;50.224;14.348;2024-03-08T12:47:26;13.55;;;6.97;;
79066;SDS011;68470;50.224;14.348;2024-03-08T12:49:54;16.27;;;8.70;;
79066;SDS011;68470;50.224;14.348;2024-03-08T12:52:20;20.33;;;10.77;;
79066;SDS011;68470;50.224;14.348;2024-03-08T12:54:45;14.80;;;9.20;;
79066;SDS011;68470;50.224;14.348;2024-03-08T12:57:12;14.27;;;7.22;;
79066;SDS011;68470;50.224;14.348;2024-03-08T12:59:39;12.80;;;8.40;;
79066;SDS011;68470;50.224;14.348;2024-03-08T13:02:04;19.02;;;10.13;;
79066;SDS011;68470;50.224;14.348;2024-03-08T13:04:36;12.38;;;8.20;;
79066;SDS011;68470;50.224;14.348;2024-03-08T13:07:02;17.55;;;9.07;;
79066;SDS011;68470;50.224;14.348;2024-03-08T13:09:27;14.68;;;8.45;;
79066;SDS011;68470;50.224;14.348;2024-03-08T13:11:53;15.95;;;7.63;;
79066;SDS011;68470;50.224;14.348;2024-03-08T13:14:21;11.25;;;6.88;;
79066;SDS011;68470;50.224;14.348;2024-03-08T13:16:46;15.95;;;9.50;;
79066;SDS011;68470;50.224;14.348;2024-03-08T13:19:13;17.88;;;10.35;;
79066;SDS011;68470;50.224;14.348;2024-03-08T13:21:39;18.48;;;11.23;;
79066;SDS011;68470;50.224;14.348;2024-03-08T13:24:04;18.13;;;8.20;;
79066;SDS011;68470;50.224;14.348;2024-03-08T13:26:30;10.70;;;6.45;;
79066;SDS011;68470;50.224;14.348;2024-03-08T13:28:58;11.20;;;6.25;;
79066;SDS011;68470;50.224;14.348;2024-03-08T13:31:23;17.30;;;10.63;;
79066;SDS011;68470;50.224;14.348;2024-03-08T13:33:49;15.95;;;8.07;;
79066;SDS011;68470;50.224;14.348;2024-03-08T13:36:16;12.32;;;6.80;;
79066;SDS011;68470;50.224;14.348;2024-03-08T13:38:46;10.98;;;6.75;;
79066;SDS011;68470;50.224;14.348;2024-03-08T13:41:13;12.18;;;8.32;;
79066;SDS011;68470;50.224;14.348;2024-03-08T13:43:40;12.60;;;8.55;;
79066;SDS011;68470;50.224;14.348;2024-03-08T13:46:06;16.10;;;8.35;;
79066;SDS011;68470;50.224;14.348;2024-03-08T13:48:35;13.88;;;8.15;;
79066;SDS011;68470;50.224;14.348;2024-03-08T13:51:00;13.80;;;8.90;;
79066;SDS011;68470;50.224;14.348;2024-03-08T13:53:26;10.15;;;5.78;;
79066;SDS011;68470;50.224;14.348;2024-03-08T13:55:52;12.73;;;7.13;;
79066;SDS011;68470;50.224;14.348;2024-03-08T13:58:17;13.13;;;8.35;;
79066;SDS011;68470;50.224;14.348;2024-03-08T14:00:43;12.50;;;8.68;;
79066;SDS011;68470;50.224;14.348;2024-03-08T14:03:11;11.35;;;6.30;;
79066;SDS011;68470;50.224;14.348;2024-03-08T14:05:38;9.27;;;5.60;;
79066;SDS011;68470;50.224;14.348;2024-03-08T14:08:05;9.73;;;5.22;;
79066;SDS011;68470;50.224;14.348;2024-03-08T14:10:32;10.75;;;5.15;;
79066;SDS011;68470;50.224;14.348;2024-03-08T14:12:58;16.77;;;7.60;;
79066;SDS011;68470;50.224;14.348;2024-03-08T14:15:23;10.30;;;5.72;;
79066;SDS011;68470;50.224;14.348;2024-03-08T14:17:53;9.40;;;5.28;;
79066;SDS011;68470;50.224;14.348;2024-03-08T14:22:44;8.27;;;4.68;;